createdAt,value
2019-02-15T00:00:20.132Z,9.15
2019-02-15T00:02:49.218Z,10.10
2019-02-15T00:05:18.324Z,8.52
2019-02-15T00:07:47.370Z,9.52
2019-02-15T00:15:30.950Z,10.95
2019-02-15T00:20:42.855Z,9.50
2019-02-15T00:23:11.935Z,7.30
2019-02-15T00:25:42.869Z,8.15
2019-02-15T00:28:12.407Z,8.80
2019-02-15T00:30:41.491Z,7.27
2019-02-15T00:33:11.178Z,8.20
2019-02-15T00:35:40.439Z,8.38
2019-02-15T00:38:09.494Z,7.30
2019-02-15T00:40:41.265Z,8.85
2019-02-15T00:43:10.874Z,8.20
2019-02-15T00:45:49.385Z,9.10
2019-02-15T00:48:19.148Z,7.73
2019-02-15T00:50:49.115Z,8.90
2019-02-15T00:56:32.277Z,8.00
2019-02-15T00:59:06.760Z,8.30
2019-02-15T01:01:40.281Z,8.68
2019-02-15T01:04:12.098Z,10.02
2019-02-15T01:06:42.600Z,8.00
2019-02-15T01:09:14.978Z,8.52
2019-02-15T01:11:46.984Z,9.00
2019-02-15T01:14:16.053Z,6.63
2019-02-15T01:16:47.048Z,8.68
2019-02-15T01:19:18.080Z,9.18
2019-02-15T01:21:47.159Z,8.67
2019-02-15T01:24:17.628Z,9.13
2019-02-15T01:26:46.704Z,7.78
2019-02-15T01:29:19.543Z,8.13
2019-02-15T01:31:51.453Z,7.32
2019-02-15T01:34:27.220Z,8.63
2019-02-15T01:39:51.445Z,7.50
2019-02-15T01:42:21.039Z,9.27
2019-02-15T01:44:52.313Z,7.80
2019-02-15T01:47:21.401Z,7.33
2019-02-15T01:49:51.151Z,8.02
2019-02-15T01:52:20.223Z,7.95
2019-02-15T01:54:50.302Z,7.80
2019-02-15T01:57:19.952Z,8.33
2019-02-15T01:59:52.718Z,7.40
2019-02-15T02:02:22.606Z,7.90
2019-02-15T02:04:51.786Z,9.43
2019-02-15T02:07:20.837Z,7.18
2019-02-15T02:09:50.518Z,6.25
2019-02-15T02:12:20.255Z,5.70
2019-02-15T02:14:49.310Z,7.00
2019-02-15T02:17:18.841Z,5.90
2019-02-15T02:19:48.418Z,7.80
2019-02-15T02:22:17.466Z,6.17
2019-02-15T02:27:28.785Z,7.37
2019-02-15T02:29:59.586Z,8.10
2019-02-15T02:32:28.671Z,5.97
2019-02-15T02:34:57.775Z,7.30
2019-02-15T02:37:26.803Z,8.32
2019-02-15T02:39:56.860Z,6.50
2019-02-15T02:42:26.361Z,7.68
2019-02-15T02:44:59.730Z,7.80
2019-02-15T02:47:28.791Z,5.67
2019-02-15T02:49:58.422Z,7.20
2019-02-15T02:52:27.476Z,7.10
2019-02-15T02:54:56.547Z,5.80
2019-02-15T02:57:25.616Z,7.28
2019-02-15T02:59:54.654Z,7.62
2019-02-15T03:02:24.206Z,7.17
2019-02-15T03:04:53.291Z,7.40
2019-02-15T03:07:22.339Z,7.70
2019-02-15T03:09:51.382Z,5.90
2019-02-15T03:14:11.568Z,8.27
2019-02-15T03:16:39.059Z,6.20
2019-02-15T03:19:08.136Z,7.20
2019-02-15T03:24:12.945Z,7.55
2019-02-15T03:26:41.996Z,6.90
2019-02-15T03:29:19.502Z,7.80
2019-02-15T03:31:48.554Z,6.82
2019-02-15T03:34:17.753Z,7.30
2019-02-15T03:36:50.337Z,6.78
2019-02-15T03:39:19.394Z,6.85
2019-02-15T03:41:48.929Z,8.13
2019-02-15T03:44:22.145Z,8.00
2019-02-15T03:46:48.100Z,7.70
2019-02-15T03:49:17.142Z,8.43
2019-02-15T03:51:46.717Z,7.70
2019-02-15T03:54:17.266Z,6.90
2019-02-15T03:56:46.683Z,7.17
2019-02-15T03:59:15.765Z,9.10
2019-02-15T04:01:45.293Z,8.05
2019-02-15T04:06:50.148Z,7.80
2019-02-15T04:09:19.203Z,8.43
2019-02-15T04:11:48.280Z,7.60
2019-02-15T04:14:20.512Z,8.57
2019-02-15T04:16:49.601Z,7.10
2019-02-15T04:19:19.999Z,5.93
2019-02-15T04:21:49.039Z,7.25
2019-02-15T04:24:19.018Z,5.67
2019-02-15T04:26:48.556Z,7.20
2019-02-15T04:31:53.393Z,7.85
2019-02-15T04:34:22.953Z,7.97
2019-02-15T04:36:52.024Z,6.57
2019-02-15T04:41:57.395Z,8.00
2019-02-15T04:44:26.718Z,6.60
2019-02-15T04:46:56.522Z,6.67
2019-02-15T04:49:26.511Z,7.15
2019-02-15T04:51:55.821Z,6.57
2019-02-15T04:54:26.879Z,6.53
2019-02-15T04:56:55.929Z,8.13
2019-02-15T05:02:01.674Z,6.95
2019-02-15T05:04:30.879Z,7.83
2019-02-15T05:06:59.943Z,7.90
2019-02-15T05:09:29.927Z,7.27
2019-02-15T05:11:59.910Z,5.70
2019-02-15T05:14:28.987Z,7.72
2019-02-15T05:16:59.000Z,6.90
2019-02-15T05:22:07.397Z,13.32
2019-02-15T05:24:36.438Z,11.13
2019-02-15T05:27:07.465Z,9.85
2019-02-15T05:29:36.523Z,8.15
2019-02-15T05:32:06.167Z,7.07
2019-02-15T05:34:39.512Z,8.10
2019-02-15T05:37:09.606Z,9.20
2019-02-15T05:39:41.173Z,8.90
2019-02-15T05:42:11.158Z,7.70
2019-02-15T05:44:40.730Z,8.45
2019-02-15T05:47:13.226Z,10.70
2019-02-15T05:49:42.273Z,9.18
2019-02-15T05:52:16.843Z,9.20
2019-02-15T05:54:47.087Z,8.37
2019-02-15T05:57:16.178Z,11.00
2019-02-15T05:59:45.218Z,7.23
2019-02-15T06:02:14.935Z,8.25
2019-02-15T06:04:44.853Z,5.37
2019-02-15T06:07:13.936Z,6.87
2019-02-15T06:09:43.953Z,7.85
2019-02-15T06:12:12.996Z,5.20
2019-02-15T06:14:42.052Z,6.25
2019-02-15T06:17:11.526Z,5.28
2019-02-15T06:19:42.618Z,5.63
2019-02-15T06:22:11.661Z,5.90
2019-02-15T06:24:44.923Z,6.63
2019-02-15T06:27:14.421Z,6.05
2019-02-15T06:29:47.661Z,7.10
2019-02-15T06:32:16.715Z,6.10
2019-02-15T06:34:47.211Z,8.15
2019-02-15T06:37:18.843Z,5.70
2019-02-15T06:39:48.016Z,6.32
2019-02-15T06:42:17.191Z,5.07
2019-02-15T06:44:54.474Z,6.28
2019-02-15T06:47:23.517Z,5.70
2019-02-15T06:49:53.076Z,6.50
2019-02-15T06:52:22.132Z,5.00
2019-02-15T06:54:51.179Z,5.97
2019-02-15T06:57:20.726Z,8.57
2019-02-15T07:02:38.225Z,7.57
2019-02-15T07:05:24.894Z,9.60
2019-02-15T07:07:54.431Z,5.78
2019-02-15T07:10:24.127Z,7.10
2019-02-15T07:15:33.954Z,6.87
2019-02-15T07:18:08.552Z,6.68
2019-02-15T07:20:43.459Z,7.03
2019-02-15T07:23:12.973Z,6.87
2019-02-15T07:28:17.856Z,9.77
2019-02-15T07:30:46.937Z,9.27
2019-02-15T07:33:37.271Z,10.85
2019-02-15T07:36:08.871Z,10.63
2019-02-15T07:38:38.013Z,10.17
2019-02-15T07:41:07.078Z,10.27
2019-02-15T07:46:12.919Z,10.48
2019-02-15T07:48:42.422Z,7.80
2019-02-15T07:51:12.603Z,9.50
2019-02-15T07:53:42.578Z,10.47
2019-02-15T07:56:11.634Z,10.23
2019-02-15T08:01:21.854Z,8.82
2019-02-15T08:03:51.333Z,8.10
2019-02-15T08:06:22.415Z,8.60
2019-02-15T08:08:52.581Z,8.00
2019-02-15T08:16:41.508Z,8.45
2019-02-15T08:19:14.072Z,8.10
2019-02-15T08:21:44.289Z,7.90
2019-02-15T08:26:49.033Z,9.90
2019-02-15T08:29:21.767Z,9.43
2019-02-15T08:31:50.804Z,7.67
2019-02-15T08:34:25.079Z,7.53
2019-02-15T08:36:54.158Z,9.23
2019-02-15T08:39:33.621Z,8.30
2019-02-15T08:42:07.723Z,7.97
2019-02-15T08:47:26.712Z,8.80
2019-02-15T08:49:56.704Z,10.80
2019-02-15T08:52:26.657Z,7.67
2019-02-15T08:54:55.685Z,9.37
2019-02-15T08:57:25.671Z,8.37
2019-02-15T08:59:56.949Z,9.90
2019-02-15T09:02:26.151Z,10.60
2019-02-15T09:04:55.198Z,10.23
2019-02-15T09:10:00.014Z,8.93
2019-02-15T09:12:29.995Z,8.40
2019-02-15T09:14:59.034Z,8.87
2019-02-15T09:17:28.965Z,5.00
2019-02-15T09:20:10.563Z,5.87
2019-02-15T09:22:40.434Z,7.40
2019-02-15T09:25:14.215Z,6.37
2019-02-15T09:27:43.302Z,7.47
2019-02-15T09:32:48.083Z,6.57
2019-02-15T09:35:17.187Z,5.97
2019-02-15T09:37:46.232Z,8.47
2019-02-15T09:40:18.820Z,9.38
2019-02-15T09:42:48.117Z,9.87
2019-02-15T09:45:16.922Z,7.43
2019-02-15T09:47:45.977Z,9.03
2019-02-15T09:50:15.359Z,9.40
2019-02-15T09:55:21.381Z,13.57
2019-02-15T09:57:50.479Z,12.00
2019-02-15T10:00:19.531Z,11.40
2019-02-15T10:02:48.713Z,9.93
2019-02-15T10:07:53.633Z,10.50
2019-02-15T10:10:22.918Z,14.30
2019-02-15T10:12:51.990Z,11.37
2019-02-15T10:15:21.045Z,16.17
2019-02-15T10:20:25.864Z,12.63
2019-02-15T10:22:56.520Z,12.30
2019-02-15T10:25:26.314Z,11.30
2019-02-15T10:27:59.026Z,10.82
2019-02-15T10:30:28.086Z,13.62
2019-02-15T10:32:59.128Z,11.73
2019-02-15T10:35:28.196Z,12.37
2019-02-15T10:37:57.804Z,10.87
2019-02-15T10:40:27.278Z,11.07
2019-02-15T10:42:56.375Z,14.17
2019-02-15T10:45:25.477Z,13.90
2019-02-15T10:50:31.285Z,10.98
2019-02-15T10:53:01.339Z,10.35
2019-02-15T10:55:30.381Z,11.00
2019-02-15T10:58:01.004Z,11.60
2019-02-15T11:00:30.075Z,10.43
2019-02-15T11:03:00.072Z,11.45
2019-02-15T11:05:29.161Z,10.00
2019-02-15T11:10:34.570Z,9.90
2019-02-15T11:13:04.673Z,10.82
2019-02-15T11:15:34.795Z,10.35
2019-02-15T11:18:03.842Z,8.80
2019-02-15T11:20:32.896Z,7.80
2019-02-15T11:23:02.514Z,12.60
2019-02-15T11:25:31.583Z,7.80
2019-02-15T11:30:40.097Z,9.02
2019-02-15T11:33:10.143Z,7.77
2019-02-15T11:35:39.229Z,6.87
2019-02-15T11:38:08.274Z,9.27
2019-02-15T11:40:38.310Z,10.98
2019-02-15T11:45:54.196Z,8.43
2019-02-15T11:48:31.036Z,7.40
2019-02-15T11:53:41.895Z,8.15
2019-02-15T11:56:20.903Z,6.85
2019-02-15T11:58:50.518Z,7.40
2019-02-15T12:01:20.325Z,6.67
2019-02-15T12:03:59.037Z,5.90
2019-02-15T12:06:29.900Z,6.87
2019-02-15T12:09:10.426Z,5.73
2019-02-15T12:11:49.756Z,6.87
2019-02-15T12:17:05.528Z,6.68
2019-02-15T12:19:29.186Z,5.90
2019-02-15T12:24:43.553Z,7.60
2019-02-15T12:32:26.762Z,6.32
2019-02-15T12:37:31.769Z,9.15
2019-02-15T12:40:01.914Z,8.75
2019-02-15T12:42:31.958Z,4.60
2019-02-15T12:45:01.427Z,5.77
2019-02-15T12:47:30.503Z,6.67
2019-02-15T12:50:00.478Z,4.90
2019-02-15T12:52:30.220Z,10.73
2019-02-15T12:55:03.348Z,6.70
2019-02-15T12:57:30.566Z,4.23
2019-02-15T13:00:01.950Z,6.13
2019-02-15T13:02:31.010Z,7.00
2019-02-15T13:05:00.326Z,6.68
2019-02-15T13:07:31.627Z,4.37
2019-02-15T13:09:58.971Z,9.67
2019-02-15T13:12:28.397Z,4.47
2019-02-15T13:14:58.101Z,10.57
2019-02-15T13:17:27.298Z,8.03
2019-02-15T13:19:56.350Z,3.80
2019-02-15T13:22:25.397Z,4.93
2019-02-15T13:27:33.034Z,8.57
2019-02-15T13:30:03.418Z,5.40
2019-02-15T13:32:32.481Z,5.67
2019-02-15T13:35:01.753Z,9.13
2019-02-15T13:37:31.790Z,6.70
2019-02-15T13:40:06.472Z,6.20
2019-02-15T13:42:36.774Z,4.43
2019-02-15T13:45:06.439Z,6.90
2019-02-15T13:47:35.784Z,5.43
2019-02-15T13:50:04.831Z,6.23
2019-02-15T13:52:34.226Z,8.00
2019-02-15T13:57:39.062Z,5.10
2019-02-15T14:00:13.726Z,5.07
2019-02-15T14:02:42.815Z,6.33
2019-02-15T14:05:12.104Z,4.53
2019-02-15T14:07:41.193Z,4.13
2019-02-15T14:10:11.048Z,4.43
2019-02-15T14:12:40.901Z,5.17
2019-02-15T14:15:10.004Z,4.47
2019-02-15T14:17:44.836Z,5.77
2019-02-15T14:20:12.153Z,4.33
2019-02-15T14:22:41.462Z,4.30
2019-02-15T14:25:14.321Z,3.63
2019-02-15T14:27:43.420Z,5.62
2019-02-15T14:32:50.243Z,4.28
2019-02-15T14:35:19.609Z,7.33
2019-02-15T14:40:24.381Z,6.45
2019-02-15T14:42:53.806Z,4.90
2019-02-15T14:45:23.431Z,5.80
2019-02-15T14:47:55.207Z,5.03
2019-02-15T14:50:22.680Z,7.67
2019-02-15T14:52:52.699Z,5.43
2019-02-15T14:55:22.216Z,6.07
2019-02-15T14:57:51.783Z,5.63
2019-02-15T15:00:21.180Z,6.67
2019-02-15T15:05:26.681Z,6.03
2019-02-15T15:07:56.691Z,7.20
2019-02-15T15:10:25.762Z,9.33
2019-02-15T15:12:54.945Z,6.73
2019-02-15T15:15:23.975Z,8.27
2019-02-15T15:18:05.918Z,8.33
2019-02-15T15:20:24.903Z,6.67
2019-02-15T15:22:53.972Z,8.50
2019-02-15T15:25:23.226Z,6.93
2019-02-15T15:27:56.807Z,7.68
2019-02-15T15:30:26.248Z,6.63
2019-02-15T15:32:55.325Z,8.40
2019-02-15T15:35:24.725Z,6.50
2019-02-15T15:37:54.368Z,11.83
2019-02-15T15:40:23.438Z,9.17
2019-02-15T15:42:52.493Z,8.53
2019-02-15T15:45:22.525Z,8.93
2019-02-15T15:47:53.972Z,6.97
2019-02-15T15:50:24.467Z,8.07
2019-02-15T15:52:53.556Z,6.20
2019-02-15T15:55:23.131Z,7.40
2019-02-15T15:57:52.190Z,6.20
2019-02-15T16:00:21.435Z,7.30
2019-02-15T16:02:51.559Z,9.70
2019-02-15T16:05:20.657Z,7.33
2019-02-15T16:07:50.225Z,7.87
2019-02-15T16:10:19.640Z,6.20
2019-02-15T16:12:48.987Z,7.17
2019-02-15T16:15:18.038Z,5.23
2019-02-15T16:17:47.100Z,5.00
2019-02-15T16:20:16.502Z,3.90
2019-02-15T16:22:47.096Z,8.93
2019-02-15T16:25:17.734Z,3.17
2019-02-15T16:30:25.587Z,5.97
2019-02-15T16:33:00.988Z,5.90
2019-02-15T16:35:30.373Z,5.60
2019-02-15T16:38:00.775Z,5.00
2019-02-15T16:40:29.791Z,5.63
2019-02-15T16:42:59.532Z,5.57
2019-02-15T16:45:28.580Z,6.60
2019-02-15T16:47:58.551Z,6.18
2019-02-15T16:50:29.125Z,6.37
2019-02-15T16:53:04.206Z,6.73
2019-02-15T16:55:34.044Z,6.50
2019-02-15T16:58:07.789Z,6.40
2019-02-15T17:00:36.848Z,6.30
2019-02-15T17:05:48.165Z,11.07
2019-02-15T17:10:53.441Z,13.93
2019-02-15T17:13:22.494Z,10.00
2019-02-15T17:15:53.560Z,6.70
2019-02-15T17:18:23.570Z,11.10
2019-02-15T17:20:52.631Z,5.60
2019-02-15T17:26:00.463Z,6.80
2019-02-15T17:31:12.696Z,5.30
2019-02-15T17:33:41.940Z,4.87
2019-02-15T17:36:21.007Z,4.63
2019-02-15T17:41:27.235Z,6.87
2019-02-15T17:43:56.303Z,6.90
2019-02-15T17:46:25.587Z,5.63
2019-02-15T17:49:00.596Z,5.87
2019-02-15T17:51:23.669Z,7.47
2019-02-15T17:53:53.198Z,10.87
2019-02-15T17:56:22.261Z,8.87
2019-02-15T17:58:51.311Z,8.43
2019-02-15T18:01:20.919Z,6.90
2019-02-15T18:03:51.075Z,9.80
2019-02-15T18:06:20.139Z,5.50
2019-02-15T18:08:49.169Z,7.50
2019-02-15T18:11:18.198Z,7.65
2019-02-15T18:13:49.845Z,5.87
2019-02-15T18:18:55.053Z,7.30
2019-02-15T18:21:26.014Z,10.67
2019-02-15T18:23:55.063Z,10.18
2019-02-15T18:26:25.270Z,7.03
2019-02-15T18:28:54.330Z,7.50
2019-02-15T18:31:27.021Z,6.97
2019-02-15T18:33:56.471Z,6.47
2019-02-15T18:39:08.043Z,7.80
2019-02-15T18:41:37.330Z,7.00
2019-02-15T18:44:06.541Z,8.30
2019-02-15T18:46:37.647Z,7.43
2019-02-15T18:49:07.714Z,6.80
2019-02-15T18:51:37.122Z,6.27
2019-02-15T18:54:07.123Z,7.93
2019-02-15T18:56:37.081Z,9.90
2019-02-15T18:59:10.901Z,10.37
2019-02-15T19:01:39.990Z,10.13
2019-02-15T19:04:16.251Z,9.90
2019-02-15T19:06:45.292Z,16.27
2019-02-15T19:09:14.361Z,7.80
2019-02-15T19:11:43.876Z,11.00
2019-02-15T19:14:13.596Z,9.60
2019-02-15T19:16:43.653Z,10.03
2019-02-15T19:19:15.196Z,12.00
2019-02-15T19:21:45.178Z,18.03
2019-02-15T19:24:15.157Z,7.03
2019-02-15T19:26:44.198Z,9.32
2019-02-15T19:29:13.272Z,7.33
2019-02-15T19:31:44.846Z,9.43
2019-02-15T19:34:13.940Z,10.27
2019-02-15T19:36:44.594Z,8.52
2019-02-15T19:39:16.615Z,7.83
2019-02-15T19:41:47.655Z,9.40
2019-02-15T19:44:17.186Z,10.23
2019-02-15T19:46:46.275Z,7.07
2019-02-15T19:49:15.307Z,6.10
2019-02-15T19:51:46.656Z,9.00
2019-02-15T19:54:15.756Z,7.27
2019-02-15T19:56:44.823Z,10.67
2019-02-15T19:59:13.878Z,10.20
2019-02-15T20:01:42.947Z,7.00
2019-02-15T20:04:12.923Z,9.60
2019-02-15T20:06:43.080Z,9.63
2019-02-15T20:09:13.071Z,13.40
2019-02-15T20:11:42.149Z,13.70
2019-02-15T20:14:11.371Z,10.93
2019-02-15T20:16:40.897Z,14.73
2019-02-15T20:19:09.999Z,16.62
2019-02-15T20:21:39.067Z,11.50
2019-02-15T20:24:09.624Z,9.75
2019-02-15T20:26:38.683Z,9.27
2019-02-15T20:29:07.730Z,10.05
2019-02-15T20:31:36.940Z,10.05
2019-02-15T20:34:06.966Z,9.55
2019-02-15T20:39:14.729Z,10.70
2019-02-15T20:41:43.785Z,13.70
2019-02-15T20:44:14.876Z,12.35
2019-02-15T20:46:43.945Z,8.40
2019-02-15T20:49:15.454Z,12.55
2019-02-15T20:51:44.560Z,12.32
2019-02-15T20:54:14.601Z,8.90
2019-02-15T20:56:44.211Z,10.05
2019-02-15T20:59:13.299Z,10.03
2019-02-15T21:01:43.282Z,13.90
2019-02-15T21:04:12.323Z,30.23
2019-02-15T21:06:41.393Z,13.80
2019-02-15T21:09:10.894Z,13.57
2019-02-15T21:11:39.965Z,12.07
2019-02-15T21:14:09.021Z,10.98
2019-02-15T21:16:38.551Z,5.87
2019-02-15T21:19:07.600Z,5.37
2019-02-15T21:21:36.660Z,7.60
2019-02-15T21:24:05.722Z,6.43
2019-02-15T21:29:13.045Z,8.47
2019-02-15T21:31:42.159Z,7.40
2019-02-15T21:34:20.328Z,8.23
2019-02-15T21:36:49.563Z,9.68
2019-02-15T21:39:18.643Z,9.18
2019-02-15T21:41:48.185Z,8.27
2019-02-15T21:44:17.566Z,10.43
2019-02-15T21:46:46.663Z,9.10
2019-02-15T21:49:15.709Z,10.35
2019-02-15T21:51:45.011Z,11.40
2019-02-15T21:54:14.580Z,13.57
2019-02-15T21:56:46.486Z,10.38
2019-02-15T21:59:15.610Z,10.03
2019-02-15T22:01:45.750Z,10.85
2019-02-15T22:06:52.055Z,11.40
2019-02-15T22:09:21.113Z,8.67
2019-02-15T22:11:51.170Z,9.80
2019-02-15T22:14:20.705Z,11.40
2019-02-15T22:16:49.783Z,10.00
2019-02-15T22:19:18.847Z,13.87
2019-02-15T22:21:47.890Z,11.57
2019-02-15T22:24:16.976Z,10.40
2019-02-15T22:26:47.791Z,11.80
2019-02-15T22:29:16.932Z,13.93
2019-02-15T22:31:46.920Z,10.50
2019-02-15T22:39:26.982Z,11.65
2019-02-15T22:42:01.032Z,11.85
2019-02-15T22:44:33.101Z,10.93
2019-02-15T22:49:43.388Z,10.70
2019-02-15T22:54:47.299Z,10.63
2019-02-15T22:57:19.075Z,9.00
2019-02-15T22:59:49.511Z,11.95
2019-02-15T23:02:19.488Z,12.13
2019-02-15T23:04:48.575Z,11.15
2019-02-15T23:07:17.818Z,11.32
2019-02-15T23:09:46.868Z,11.93
2019-02-15T23:12:15.966Z,10.07
2019-02-15T23:14:45.026Z,8.30
2019-02-15T23:17:14.067Z,7.67
2019-02-15T23:19:43.568Z,8.82
2019-02-15T23:22:12.642Z,8.95
2019-02-15T23:24:42.597Z,10.43
2019-02-15T23:27:11.652Z,7.47
2019-02-15T23:29:40.688Z,8.82
2019-02-15T23:34:45.542Z,11.45
2019-02-15T23:37:14.596Z,11.75
2019-02-15T23:39:46.111Z,11.20
2019-02-15T23:42:16.103Z,12.50
2019-02-15T23:44:45.141Z,12.45
2019-02-15T23:49:51.111Z,12.30
2019-02-15T23:52:21.736Z,11.40
2019-02-15T23:54:50.810Z,9.50
